KCRX/CRX METAR and TAF weather

Enter ICAO airport designator
Station Type Date Time Source
KCRX METAR 2018/04/26 15:15 UTC NOAA

KCRX 261515Z AUTO 08011KT 1 3/4SM RA SCT003 BKN009 OVC012 14/13 A2978 RMK AO2


Station Type Date Time Source
KCRX Decoded METAR 2018/04/26 15:15 UTC NOAA

Station name not available
Apr 26, 2018 - 11:15 AM EDT / 2018.04.26 1515 UTC
Wind: from the E (080 degrees) at 13 MPH (11 KT):0
Visibility: 1 3/4 mile(s):0
Sky conditions: overcast
Weather: rain
Temperature: 57 F (14 C)
Dew Point: 55 F (13 C)
Relative Humidity: 93%
Pressure (altimeter): 29.78 in. Hg (1008 hPa)
ob: KCRX 261515Z AUTO 08011KT 1 3/4SM RA SCT003 BKN009 OVC012 14/13 A2978 RMK A

Station Type Date Time Source
KCRX TAF UTC NOAA

Error!


Example: see airport list